Time;durP1;ratioP1;P1;durP2;ratioP2;P2;SDS_P1;SDS_P2;PMS_P1;PMS_P2;Temp;Humidity;BMP_temperature;BMP_pressure;BME280_temperature;BME280_humidity;BME280_pressure;Samples;Min_cycle;Max_cycle;Signal;HPM_P1;HPM_P2
2022/05/16 00:01:43;;;;;;;3.30;2.57;;;15.40;99.90;;;;;;5073145;28;20482;-92
2022/05/16 00:04:10;;;;;;;2.43;2.20;;;15.30;99.90;;;;;;5073062;28;20469;-93
2022/05/16 00:06:37;;;;;;;2.77;2.47;;;15.30;99.90;;;;;;5072874;28;20878;-92
2022/05/16 00:09:05;;;;;;;2.83;2.33;;;15.20;99.90;;;;;;5072498;28;20466;-93
2022/05/16 00:11:33;;;;;;;4.50;2.50;;;15.20;99.90;;;;;;5072826;28;20478;-92
2022/05/16 00:13:59;;;;;;;3.93;2.47;;;15.10;99.90;;;;;;5072643;28;20478;-93
2022/05/16 00:16:26;;;;;;;2.57;2.37;;;15.00;99.90;;;;;;5072615;28;20458;-93
2022/05/16 00:18:54;;;;;;;2.90;2.30;;;15.00;99.90;;;;;;5072208;28;20447;-93
2022/05/16 00:21:21;;;;;;;2.60;2.40;;;14.90;99.90;;;;;;5072734;28;20487;-92
2022/05/16 00:23:48;;;;;;;5.10;2.63;;;14.90;99.90;;;;;;5072522;28;20459;-92
2022/05/16 00:26:15;;;;;;;2.40;2.20;;;14.90;99.90;;;;;;5073065;28;20558;-93
2022/05/16 00:28:41;;;;;;;3.70;2.50;;;14.80;99.90;;;;;;5073104;28;20485;-93
2022/05/16 00:31:09;;;;;;;3.13;2.77;;;14.70;99.90;;;;;;5072682;28;20458;-92
2022/05/16 00:33:35;;;;;;;3.70;2.60;;;14.70;99.90;;;;;;5072933;28;20485;-94
2022/05/16 00:36:04;;;;;;;2.87;2.57;;;14.70;99.90;;;;;;5072452;28;20469;-92
2022/05/16 00:38:31;;;;;;;3.87;2.40;;;14.60;99.90;;;;;;5072587;28;20829;-92
2022/05/16 00:41:01;;;;;;;2.77;2.47;;;14.60;99.90;;;;;;5072868;28;20470;-92
2022/05/16 00:43:44;;;;;;;3.20;2.53;;;14.60;99.90;;;;;;5073143;28;20463;-92
2022/05/16 00:46:11;;;;;;;2.60;2.37;;;14.50;99.90;;;;;;5073161;28;20490;-92
2022/05/16 00:48:38;;;;;;;3.30;2.27;;;14.50;99.90;;;;;;5072735;28;20494;-93
2022/05/16 00:51:13;;;;;;;2.77;2.57;;;14.50;99.90;;;;;;5082732;28;20481;-93
2022/05/16 00:53:40;;;;;;;2.70;2.50;;;14.40;99.90;;;;;;5094714;28;20461;-93
2022/05/16 00:56:08;;;;;;;3.37;2.70;;;14.40;99.90;;;;;;5075484;28;20471;-93
2022/05/16 00:58:38;;;;;;;2.63;2.43;;;14.40;99.90;;;;;;5075218;28;20463;-92
2022/05/16 01:04:47;;;;;;;3.53;2.30;;;14.30;99.90;;;;;;5074735;28;20471;-93
2022/05/16 01:06:41;;;;;;;3.67;3.03;;;14.20;99.90;;;;;;5073096;28;20580;-93
2022/05/16 01:09:08;;;;;;;3.90;3.00;;;14.20;99.90;;;;;;5072582;28;20458;-92
2022/05/16 01:11:37;;;;;;;3.00;2.80;;;14.20;99.90;;;;;;5072909;28;20486;-93
2022/05/16 01:14:04;;;;;;;4.73;2.47;;;14.20;99.90;;;;;;5073105;28;20659;-93
2022/05/16 01:16:31;;;;;;;3.13;2.83;;;14.10;99.90;;;;;;5072855;28;20462;-93
2022/05/16 01:18:58;;;;;;;3.43;2.60;;;14.10;99.90;;;;;;5072395;28;20481;-92
2022/05/16 01:21:32;;;;;;;2.60;2.40;;;14.10;99.90;;;;;;5073299;28;20489;-93
2022/05/16 01:24:04;;;;;;;2.97;2.77;;;14.10;99.90;;;;;;5073822;28;20479;-93
2022/05/16 01:26:33;;;;;;;3.33;2.93;;;14.00;99.90;;;;;;5073819;28;20473;-94
2022/05/16 01:29:01;;;;;;;2.90;2.60;;;14.00;99.90;;;;;;5074311;28;20488;-93
2022/05/16 01:31:28;;;;;;;5.53;3.30;;;14.00;99.90;;;;;;5076672;28;20482;-93
2022/05/16 01:33:55;;;;;;;3.17;2.50;;;14.00;99.90;;;;;;5083744;28;20474;-93
2022/05/16 01:36:22;;;;;;;3.40;2.70;;;14.00;99.90;;;;;;5099856;28;20466;-94
2022/05/16 01:38:49;;;;;;;3.10;2.60;;;13.90;99.90;;;;;;5098928;28;20506;-94
2022/05/16 01:41:20;;;;;;;3.23;2.50;;;13.90;99.90;;;;;;5080660;28;20998;-93
2022/05/16 01:43:49;;;;;;;2.80;2.50;;;13.90;99.90;;;;;;5078718;28;20457;-94
2022/05/16 01:46:20;;;;;;;4.30;3.07;;;13.90;99.90;;;;;;5079336;28;20470;-92
2022/05/16 01:48:47;;;;;;;2.80;2.60;;;13.90;99.90;;;;;;5077796;28;20462;-93
2022/05/16 01:51:14;;;;;;;3.40;2.87;;;13.80;99.90;;;;;;5077166;28;20519;-93
2022/05/16 01:53:43;;;;;;;3.10;2.77;;;13.80;99.90;;;;;;5076048;28;20482;-93
2022/05/16 01:56:09;;;;;;;3.50;2.83;;;13.80;99.90;;;;;;5078390;28;20481;-93
2022/05/16 01:58:40;;;;;;;6.23;3.40;;;13.80;99.90;;;;;;5078437;28;20454;-93
2022/05/16 02:01:07;;;;;;;4.87;2.87;;;13.80;99.90;;;;;;5075806;28;20470;-92
2022/05/16 02:03:37;;;;;;;3.07;2.77;;;13.80;99.90;;;;;;5075637;28;20464;-92
2022/05/16 02:06:04;;;;;;;3.30;3.00;;;13.80;99.90;;;;;;5075554;28;20455;-91
2022/05/16 02:08:30;;;;;;;3.10;2.90;;;13.80;99.90;;;;;;5075263;28;20455;-92
2022/05/16 02:10:57;;;;;;;4.70;2.80;;;13.80;99.90;;;;;;5075650;28;20982;-93
2022/05/16 02:13:34;;;;;;;2.40;2.20;;;13.80;99.90;;;;;;5075409;28;20474;-93
2022/05/16 02:16:02;;;;;;;4.13;2.43;;;13.80;99.90;;;;;;5075210;28;20470;-93
2022/05/16 02:18:29;;;;;;;3.37;3.07;;;13.80;99.90;;;;;;5075260;28;20823;-92
2022/05/16 02:24:38;;;;;;;2.83;2.63;;;13.70;99.90;;;;;;5075348;28;20964;-92
2022/05/16 02:26:28;;;;;;;2.97;2.67;;;13.70;99.90;;;;;;5075102;28;20449;-93
2022/05/16 02:28:55;;;;;;;4.97;2.83;;;13.60;99.90;;;;;;5074874;28;20462;-93
2022/05/16 02:31:23;;;;;;;3.23;2.90;;;13.60;99.90;;;;;;5075370;28;20504;-94
2022/05/16 02:33:50;;;;;;;4.47;2.90;;;13.60;99.90;;;;;;5075474;28;20485;-92
2022/05/16 02:36:17;;;;;;;3.00;2.70;;;13.60;99.90;;;;;;5075033;28;20459;-91
2022/05/16 02:38:44;;;;;;;3.23;2.93;;;13.60;99.90;;;;;;5074196;28;20462;-92
2022/05/16 02:41:11;;;;;;;3.17;2.53;;;13.60;99.90;;;;;;5074743;28;20478;-92
2022/05/16 02:43:38;;;;;;;2.80;2.60;;;13.60;99.90;;;;;;5088482;28;20471;-92
2022/05/16 02:46:04;;;;;;;4.23;3.00;;;13.60;99.90;;;;;;5080206;28;20463;-92
2022/05/16 02:48:33;;;;;;;4.30;2.87;;;13.50;99.90;;;;;;5074607;28;20462;-91
2022/05/16 02:50:59;;;;;;;2.93;2.63;;;13.50;99.90;;;;;;5074368;28;20473;-92
2022/05/16 02:53:26;;;;;;;4.17;2.70;;;13.50;99.90;;;;;;5090442;22;20906;-93
2022/05/16 02:56:08;;;;;;;6.57;3.10;;;13.50;99.90;;;;;;5057281;28;20804;-93
2022/05/16 02:58:39;;;;;;;3.00;2.67;;;13.50;99.90;;;;;;5056280;28;20459;-93
2022/05/16 03:01:40;;;;;;;;;;;;;;;;;;;;;
2022/05/16 03:04:27;;;;;;;4.23;2.90;;;13.60;99.90;;;;;;5035366;28;20448;-94
2022/05/16 03:07:18;;;;;;;3.70;2.83;;;13.60;99.90;;;;;;5036187;28;20634;-93
2022/05/16 03:09:44;;;;;;;4.30;2.83;;;13.60;99.90;;;;;;5035501;28;20464;-93
2022/05/16 03:12:17;;;;;;;3.10;2.57;;;13.70;99.90;;;;;;5035555;28;20484;-93
2022/05/16 03:14:46;;;;;;;5.53;2.90;;;13.70;99.90;;;;;;5035105;28;20486;-94
2022/05/16 03:17:13;;;;;;;2.90;2.60;;;13.70;99.90;;;;;;5035413;28;20476;-94
2022/05/16 03:19:42;;;;;;;3.53;3.20;;;13.80;99.90;;;;;;5035876;28;20492;-92
2022/05/16 03:22:09;;;;;;;3.33;3.03;;;13.90;99.90;;;;;;5034843;28;20547;-93
2022/05/16 03:24:36;;;;;;;3.77;3.10;;;13.90;99.90;;;;;;5034851;28;20460;-93
2022/05/16 03:27:05;;;;;;;4.20;3.50;;;13.90;99.90;;;;;;5034920;28;20832;-93
2022/05/16 03:29:32;;;;;;;3.50;3.20;;;13.90;99.90;;;;;;5034800;28;20471;-93
2022/05/16 03:32:02;;;;;;;5.03;2.70;;;13.90;99.90;;;;;;5035285;28;20495;-93
2022/05/16 03:34:29;;;;;;;3.03;2.80;;;14.00;99.90;;;;;;5035445;28;20503;-93
2022/05/16 03:37:10;;;;;;;2.77;2.57;;;14.00;99.90;;;;;;5036723;28;20903;-92
2022/05/16 03:42:33;;;;;;;3.87;3.47;;;14.10;99.90;;;;;;5034335;28;20909;-93
2022/05/16 03:45:02;;;;;;;3.30;2.70;;;14.20;99.90;;;;;;5034310;28;20460;-92
2022/05/16 03:47:39;;;;;;;3.50;3.13;;;14.20;99.90;;;;;;5034199;28;20526;-91
2022/05/16 03:50:26;;;;;;;2.70;2.50;;;14.30;99.90;;;;;;5033674;28;20460;-93
2022/05/16 03:59:34;;;;;;;3.63;3.13;;;14.40;99.90;;;;;;5080019;22;20509;-73
2022/05/16 04:02:01;;;;;;;3.47;2.87;;;14.40;99.90;;;;;;5069950;28;20475;-73
2022/05/16 04:04:28;;;;;;;3.43;3.13;;;14.50;99.90;;;;;;5070511;28;20865;-72
2022/05/16 04:06:55;;;;;;;3.53;3.10;;;14.50;99.90;;;;;;5070173;28;20483;-73
2022/05/16 04:09:21;;;;;;;4.40;3.20;;;14.50;99.90;;;;;;5069302;28;20547;-73
2022/05/16 04:11:49;;;;;;;5.97;3.43;;;14.50;99.90;;;;;;5069740;28;20467;-72
2022/05/16 04:14:16;;;;;;;4.60;3.00;;;14.60;99.90;;;;;;5069404;28;20478;-72
2022/05/16 04:16:44;;;;;;;3.33;2.90;;;14.60;99.90;;;;;;5069650;28;20458;-73
2022/05/16 04:19:10;;;;;;;5.47;3.60;;;14.60;99.90;;;;;;5069433;28;20957;-73
2022/05/16 04:21:38;;;;;;;3.10;2.80;;;14.60;99.90;;;;;;5070263;28;20478;-72
2022/05/16 04:24:06;;;;;;;2.90;2.70;;;14.60;99.90;;;;;;5070081;28;20455;-72
2022/05/16 04:26:34;;;;;;;3.07;2.87;;;14.60;99.90;;;;;;5070440;28;20466;-72
2022/05/16 04:29:00;;;;;;;3.67;3.30;;;14.60;99.90;;;;;;5069972;28;20490;-72
2022/05/16 04:31:27;;;;;;;4.30;2.97;;;14.60;99.90;;;;;;5070223;28;20501;-72
2022/05/16 04:33:55;;;;;;;3.27;2.97;;;14.60;99.90;;;;;;5070090;28;20814;-72
2022/05/16 04:36:22;;;;;;;3.20;2.77;;;14.70;99.90;;;;;;5070241;28;20461;-73
2022/05/16 04:38:48;;;;;;;4.03;2.83;;;14.70;99.90;;;;;;5070089;28;20484;-73
2022/05/16 04:43:59;;;;;;;4.33;2.80;;;14.70;99.90;;;;;;5070729;28;20526;-72
2022/05/16 04:46:26;;;;;;;3.80;3.50;;;14.80;99.90;;;;;;5070530;28;20465;-72
2022/05/16 04:48:53;;;;;;;3.50;3.20;;;14.80;99.90;;;;;;5069626;28;20458;-72
2022/05/16 04:51:21;;;;;;;4.63;2.93;;;14.80;99.90;;;;;;5070490;28;20486;-71
2022/05/16 04:53:47;;;;;;;4.07;2.80;;;14.80;99.90;;;;;;5070177;28;20466;-72
2022/05/16 04:56:14;;;;;;;3.00;2.73;;;14.90;99.90;;;;;;5070425;28;20462;-72
2022/05/16 04:58:41;;;;;;;3.40;2.97;;;15.00;99.90;;;;;;5069722;28;20896;-72
2022/05/16 05:01:08;;;;;;;3.70;3.40;;;15.00;99.90;;;;;;5070446;28;20970;-72
2022/05/16 05:03:35;;;;;;;3.10;2.80;;;15.00;99.90;;;;;;5070645;28;20535;-72
2022/05/16 05:06:01;;;;;;;4.07;3.67;;;15.10;99.90;;;;;;5072837;28;20975;-72
2022/05/16 05:08:30;;;;;;;4.33;3.37;;;15.10;99.90;;;;;;5074135;28;20458;-71
2022/05/16 05:16:25;;;;;;;5.40;2.93;;;15.30;99.90;;;;;;5074215;28;20441;-72
2022/05/16 05:18:52;;;;;;;3.73;3.43;;;15.30;99.90;;;;;;5074198;28;20454;-72
2022/05/16 05:21:19;;;;;;;3.83;3.43;;;15.40;99.90;;;;;;5074284;28;20913;-72
2022/05/16 05:23:47;;;;;;;3.50;3.20;;;15.40;99.90;;;;;;5074800;28;20446;-72
2022/05/16 05:26:14;;;;;;;3.40;3.10;;;15.50;99.90;;;;;;5074902;28;20453;-73
2022/05/16 05:28:42;;;;;;;3.30;3.00;;;15.50;99.90;;;;;;5073680;28;20454;-72
2022/05/16 05:31:11;;;;;;;3.90;3.50;;;15.60;99.90;;;;;;5074185;28;20458;-73
2022/05/16 05:33:38;;;;;;;3.70;3.40;;;15.60;99.90;;;;;;5074429;28;20462;-73
2022/05/16 05:36:05;;;;;;;3.50;3.10;;;15.70;99.90;;;;;;5073732;28;20489;-72
2022/05/16 05:38:32;;;;;;;3.37;3.07;;;15.80;99.90;;;;;;5072849;28;20477;-72
2022/05/16 05:41:00;;;;;;;3.80;3.10;;;15.80;99.90;;;;;;5074353;28;20454;-73
2022/05/16 05:43:27;;;;;;;3.70;3.40;;;15.90;99.90;;;;;;5073965;28;20968;-72
2022/05/16 05:45:53;;;;;;;5.00;3.67;;;15.90;99.90;;;;;;5073513;28;20957;-72
2022/05/16 05:48:20;;;;;;;3.40;3.20;;;15.90;99.90;;;;;;5073026;28;20459;-72
2022/05/16 05:50:47;;;;;;;4.50;3.23;;;15.90;99.90;;;;;;5073631;28;20961;-72
2022/05/16 05:53:13;;;;;;;3.70;3.40;;;16.00;99.90;;;;;;5073550;28;20474;-72
2022/05/16 05:55:40;;;;;;;3.20;3.00;;;16.00;99.90;;;;;;5073258;28;20490;-72
2022/05/16 05:58:09;;;;;;;3.90;3.60;;;16.10;99.90;;;;;;5072796;28;20571;-72
2022/05/16 06:00:35;;;;;;;4.90;3.63;;;16.20;99.90;;;;;;5073447;28;20836;-72
2022/05/16 06:03:02;;;;;;;5.00;3.90;;;16.20;99.90;;;;;;5073235;28;20485;-72
2022/05/16 06:05:29;;;;;;;4.50;3.73;;;16.30;99.90;;;;;;5073519;28;20446;-72
2022/05/16 06:07:56;;;;;;;4.10;3.30;;;16.40;99.90;;;;;;5072336;28;20465;-73
2022/05/16 06:10:23;;;;;;;3.80;3.50;;;16.40;99.90;;;;;;5071954;28;20807;-73
2022/05/16 06:12:50;;;;;;;4.50;4.10;;;16.50;99.90;;;;;;5069983;28;20470;-72
2022/05/16 06:15:18;;;;;;;3.87;3.40;;;16.50;99.90;;;;;;5067219;28;20497;-72
2022/05/16 06:17:46;;;;;;;3.67;3.37;;;16.60;99.90;;;;;;5069095;28;20461;-72
2022/05/16 06:20:14;;;;;;;5.40;3.17;;;16.70;99.90;;;;;;5069650;28;20831;-72
2022/05/16 06:22:42;;;;;;;3.30;3.10;;;16.80;99.90;;;;;;5056126;28;20479;-73
2022/05/16 06:27:56;;;;;;;3.73;3.43;;;16.90;99.90;;;;;;5059599;28;20443;-73
2022/05/16 06:30:24;;;;;;;3.60;3.30;;;17.00;99.90;;;;;;5059698;28;20466;-72
2022/05/16 06:32:51;;;;;;;4.10;3.70;;;17.10;99.90;;;;;;5062622;28;20862;-72
2022/05/16 06:35:18;;;;;;;4.00;3.53;;;17.30;99.90;;;;;;5061427;28;20532;-73
2022/05/16 06:37:45;;;;;;;3.73;3.00;;;17.50;99.90;;;;;;5060441;28;20460;-72
2022/05/16 06:40:14;;;;;;;3.80;3.50;;;17.80;99.90;;;;;;5061007;28;20455;-73
2022/05/16 06:42:41;;;;;;;4.40;3.40;;;18.00;99.90;;;;;;5062215;28;20889;-73
2022/05/16 06:45:08;;;;;;;5.93;3.60;;;18.10;99.90;;;;;;5060021;28;20456;-72
2022/05/16 06:47:36;;;;;;;3.73;3.40;;;18.20;99.90;;;;;;5061489;28;20466;-72
2022/05/16 06:50:04;;;;;;;3.73;3.40;;;18.40;99.90;;;;;;5061864;28;20848;-73
2022/05/16 06:52:31;;;;;;;3.50;3.20;;;18.50;99.90;;;;;;5060343;28;20483;-73
2022/05/16 06:54:58;;;;;;;3.80;3.40;;;18.70;99.90;;;;;;5060872;28;20481;-72
2022/05/16 06:57:25;;;;;;;3.40;3.10;;;19.00;99.90;;;;;;5061912;28;20458;-73
2022/05/16 06:59:51;;;;;;;3.40;3.10;;;19.10;99.90;;;;;;5059905;28;20471;-73
2022/05/16 07:02:18;;;;;;;4.40;3.20;;;19.30;99.90;;;;;;5060361;28;20475;-73
2022/05/16 07:04:46;;;;;;;3.00;2.80;;;19.40;99.90;;;;;;5062023;28;20833;-72
2022/05/16 07:07:13;;;;;;;3.27;2.97;;;19.60;99.90;;;;;;5060479;28;20462;-73
2022/05/16 07:09:40;;;;;;;4.87;3.50;;;19.70;99.90;;;;;;5059606;28;21000;-72
2022/05/16 07:12:08;;;;;;;3.60;3.30;;;19.90;99.90;;;;;;5061830;28;20474;-72
2022/05/16 07:14:37;;;;;;;4.90;3.90;;;20.00;99.90;;;;;;5060426;28;20543;-72
2022/05/16 07:17:04;;;;;;;3.60;3.30;;;20.20;99.90;;;;;;5059703;28;20464;-73
2022/05/16 07:19:34;;;;;;;3.83;3.53;;;20.30;99.90;;;;;;5058717;28;20470;-73
2022/05/16 07:22:03;;;;;;;3.90;3.43;;;20.40;99.90;;;;;;5059393;28;20490;-73
2022/05/16 07:24:31;;;;;;;3.57;3.27;;;20.50;99.90;;;;;;5060726;28;20973;-72
2022/05/16 07:29:43;;;;;;;3.37;3.10;;;20.80;99.90;;;;;;5060022;28;20438;-72
2022/05/16 07:32:12;;;;;;;4.27;3.67;;;21.10;99.90;;;;;;5066432;28;20506;-72
2022/05/16 07:34:39;;;;;;;5.23;3.73;;;21.30;99.90;;;;;;5062703;28;20462;-71
2022/05/16 07:37:08;;;;;;;4.27;3.87;;;21.40;99.90;;;;;;5055055;28;20463;-73
2022/05/16 07:39:35;;;;;;;4.83;4.00;;;21.50;99.90;;;;;;5053535;28;20455;-72
2022/05/16 07:42:02;;;;;;;4.80;4.03;;;21.50;99.90;;;;;;5057013;28;20490;-72
2022/05/16 07:44:29;;;;;;;4.77;3.47;;;21.60;99.90;;;;;;5060028;28;20983;-72
2022/05/16 07:46:56;;;;;;;5.60;4.17;;;21.70;99.90;;;;;;5059057;28;20947;-72
2022/05/16 07:49:23;;;;;;;4.20;3.80;;;21.70;99.90;;;;;;5056460;28;20483;-72
2022/05/16 07:51:49;;;;;;;7.00;4.50;;;21.70;99.90;;;;;;5059956;28;20486;-72
2022/05/16 07:54:18;;;;;;;5.00;4.60;;;21.70;99.90;;;;;;5058995;28;20462;-73
2022/05/16 07:56:44;;;;;;;6.03;4.00;;;21.80;99.90;;;;;;5059313;28;20486;-72
2022/05/16 07:59:11;;;;;;;5.00;4.50;;;21.70;99.90;;;;;;5054543;28;20946;-71
2022/05/16 08:01:39;;;;;;;4.50;4.10;;;21.70;99.90;;;;;;5069276;28;20485;-72
2022/05/16 08:04:06;;;;;;;5.90;4.20;;;21.80;99.90;;;;;;5057169;28;20994;-72
2022/05/16 08:06:33;;;;;;;8.90;4.43;;;21.90;99.90;;;;;;5048554;28;20927;-72
2022/05/16 08:11:46;;;;;;;5.33;4.57;;;21.90;99.90;;;;;;5048354;28;20467;-71
2022/05/16 08:14:13;;;;;;;4.70;4.30;;;21.70;99.90;;;;;;5056651;28;20459;-70
2022/05/16 08:16:40;;;;;;;5.37;4.10;;;21.50;99.90;;;;;;5058649;28;20898;-71
2022/05/16 08:19:07;;;;;;;5.33;4.33;;;21.40;99.90;;;;;;5056072;28;20561;-72
2022/05/16 08:21:34;;;;;;;4.20;3.83;;;21.40;99.90;;;;;;5058687;28;20479;-71
2022/05/16 08:24:02;;;;;;;5.33;4.70;;;21.40;99.90;;;;;;5058269;28;20462;-72
2022/05/16 08:26:29;;;;;;;4.10;3.67;;;21.30;99.90;;;;;;5053434;28;20543;-71
2022/05/16 08:28:57;;;;;;;6.43;4.30;;;21.30;99.90;;;;;;5048733;28;20463;-71
2022/05/16 08:31:28;;;;;;;5.27;4.20;;;21.40;99.90;;;;;;5048901;28;20491;-72
2022/05/16 08:33:56;;;;;;;5.07;3.87;;;21.40;99.90;;;;;;5062827;28;20463;-71
2022/05/16 08:41:55;;;;;;;6.00;4.63;;;22.10;99.90;;;;;;5069238;28;20462;-71
2022/05/16 08:44:28;;;;;;;6.87;4.80;;;22.50;99.90;;;;;;5069523;28;20458;-71
2022/05/16 08:47:10;;;;;;;5.10;4.43;;;22.70;99.90;;;;;;5070028;28;20455;-72
2022/05/16 08:49:41;;;;;;;7.40;4.00;;;23.10;99.90;;;;;;5069120;28;20455;-72
2022/05/16 08:52:16;;;;;;;5.13;4.73;;;23.40;99.90;;;;;;5069748;28;20473;-73
2022/05/16 08:54:49;;;;;;;5.63;4.43;;;23.60;99.90;;;;;;5069044;28;20465;-72
2022/05/16 08:57:31;;;;;;;7.30;4.70;;;23.60;99.70;;;;;;5069061;28;20535;-72
2022/05/16 09:00:07;;;;;;;5.63;4.63;;;23.60;99.90;;;;;;5069798;28;20468;-72
2022/05/16 09:02:36;;;;;;;5.77;4.20;;;23.80;99.90;;;;;;5069583;28;20483;-72
2022/05/16 09:05:09;;;;;;;6.23;4.17;;;23.90;99.50;;;;;;5069341;28;20588;-72
2022/05/16 09:07:42;;;;;;;4.87;4.37;;;24.00;99.90;;;;;;5069335;28;20471;-72
2022/05/16 09:10:11;;;;;;;5.13;4.63;;;24.30;99.90;;;;;;5068940;28;20462;-72
2022/05/16 09:12:45;;;;;;;5.30;4.70;;;24.50;99.90;;;;;;5069452;28;20479;-72
2022/05/16 09:15:25;;;;;;;5.43;4.07;;;24.60;99.20;;;;;;5069285;28;20466;-72
2022/05/16 09:18:08;;;;;;;5.97;4.70;;;24.60;97.50;;;;;;5069259;28;20470;-72
2022/05/16 09:20:46;;;;;;;6.10;4.47;;;24.80;97.80;;;;;;5067925;28;20466;-72
2022/05/16 09:23:33;;;;;;;5.50;3.80;;;24.70;97.40;;;;;;5069623;28;20501;-72
2022/05/16 09:26:09;;;;;;;5.20;4.00;;;24.50;97.60;;;;;;5068692;28;20959;-73
2022/05/16 09:28:45;;;;;;;5.77;3.97;;;24.60;98.00;;;;;;5069409;28;20458;-71
2022/05/16 09:31:20;;;;;;;5.60;3.90;;;24.90;98.30;;;;;;5064872;28;20547;-72
2022/05/16 09:33:49;;;;;;;5.13;4.00;;;25.40;96.50;;;;;;5048184;28;20455;-72
2022/05/16 09:36:21;;;;;;;6.23;4.43;;;25.60;96.30;;;;;;5048454;28;20507;-73
2022/05/16 09:38:47;;;;;;;4.80;3.43;;;25.50;95.00;;;;;;5048455;28;20464;-72
2022/05/16 09:41:23;;;;;;;6.77;4.27;;;25.30;95.30;;;;;;5047766;28;20464;-72
2022/05/16 09:43:58;;;;;;;8.97;4.67;;;25.00;95.80;;;;;;5052896;28;20466;-73
2022/05/16 09:46:33;;;;;;;4.90;4.43;;;24.80;96.40;;;;;;5066142;28;20454;-73
2022/05/16 09:49:06;;;;;;;5.67;4.50;;;24.40;96.70;;;;;;5052766;28;20818;-72
2022/05/16 09:51:41;;;;;;;4.03;3.63;;;24.30;97.40;;;;;;5064844;28;20485;-72
2022/05/16 09:54:15;;;;;;;8.00;3.83;;;24.20;97.20;;;;;;5072527;28;20492;-72
2022/05/16 09:56:58;;;;;;;7.80;4.23;;;24.00;96.60;;;;;;5070844;28;20484;-72
2022/05/16 09:59:42;;;;;;;7.10;4.30;;;24.00;96.70;;;;;;5072091;28;20469;-72
2022/05/16 10:02:26;;;;;;;7.13;3.97;;;24.20;96.30;;;;;;5071802;28;20478;-72
2022/05/16 10:04:56;;;;;;;5.10;4.07;;;24.50;97.00;;;;;;5071376;28;20565;-72
2022/05/16 10:07:40;;;;;;;5.33;4.07;;;24.90;95.70;;;;;;5072026;28;20454;-71
2022/05/16 10:10:07;;;;;;;4.10;3.70;;;25.10;96.00;;;;;;5071384;28;20455;-71
2022/05/16 10:12:35;;;;;;;5.90;3.57;;;25.30;96.70;;;;;;5070694;28;20478;-71
2022/05/16 10:15:01;;;;;;;5.50;4.30;;;25.50;96.30;;;;;;5072090;28;20942;-71
2022/05/16 10:17:34;;;;;;;4.37;4.00;;;25.80;96.00;;;;;;5071599;28;20489;-71
2022/05/16 10:20:05;;;;;;;8.37;4.70;;;26.30;95.90;;;;;;5070256;28;20900;-71
2022/05/16 10:22:33;;;;;;;5.37;4.40;;;26.70;95.40;;;;;;5072154;28;20482;-71
2022/05/16 10:25:00;;;;;;;5.10;3.83;;;26.90;95.30;;;;;;5071663;28;20462;-72
2022/05/16 10:27:31;;;;;;;4.43;3.97;;;26.90;94.30;;;;;;5070751;28;20818;-71
2022/05/16 10:30:01;;;;;;;9.73;5.07;;;26.60;94.60;;;;;;5071829;28;20462;-71
2022/05/16 10:35:26;;;;;;;4.40;3.60;;;26.10;95.10;;;;;;5071896;28;20446;-71
2022/05/16 10:37:55;;;;;;;7.20;4.30;;;25.90;95.80;;;;;;5070285;28;20531;-72
2022/05/16 10:40:29;;;;;;;6.03;4.40;;;25.60;95.10;;;;;;5071168;28;20618;-71
2022/05/16 10:43:25;;;;;;;5.90;4.10;;;25.30;96.00;;;;;;5071291;28;20475;-71
2022/05/16 10:45:55;;;;;;;3.57;3.27;;;25.10;95.40;;;;;;5071078;28;20461;-71
2022/05/16 10:48:31;;;;;;;3.20;2.53;;;24.90;95.30;;;;;;5071214;28;20850;-71
2022/05/16 10:51:07;;;;;;;3.80;3.17;;;24.70;95.50;;;;;;5071182;28;20460;-71
2022/05/16 10:53:39;;;;;;;6.20;2.93;;;24.70;96.00;;;;;;5071562;28;20940;-71
2022/05/16 10:56:17;;;;;;;6.50;3.40;;;24.70;95.00;;;;;;5070452;28;20483;-72
2022/05/16 10:58:53;;;;;;;4.53;3.23;;;24.60;95.20;;;;;;5070870;28;20477;-71
2022/05/16 11:01:24;;;;;;;5.50;3.90;;;24.50;95.90;;;;;;5070751;28;21001;-70
2022/05/16 11:04:36;;;;;;;8.30;3.27;;;24.20;96.80;;;;;;5071147;28;21341;-71
2022/05/16 11:07:15;;;;;;;7.20;3.80;;;24.00;96.40;;;;;;5023876;28;20462;-72
2022/05/16 11:09:50;;;;;;;3.07;2.77;;;23.80;97.00;;;;;;5070249;28;20914;-71
2022/05/16 11:12:20;;;;;;;4.57;3.20;;;23.70;97.00;;;;;;5071318;28;20477;-72
2022/05/16 11:14:56;;;;;;;3.60;3.17;;;23.50;96.90;;;;;;5071664;28;20471;-71
2022/05/16 11:17:27;;;;;;;7.73;3.30;;;23.30;97.30;;;;;;5070454;28;20488;-71
2022/05/16 11:20:05;;;;;;;5.20;3.13;;;23.10;97.50;;;;;;5070044;28;20462;-72
2022/05/16 11:22:37;;;;;;;6.07;3.70;;;23.00;97.90;;;;;;5070415;28;20524;-72
2022/05/16 11:25:11;;;;;;;6.27;3.47;;;22.90;98.10;;;;;;5070818;28;20471;-72
2022/05/16 11:27:50;;;;;;;5.23;3.13;;;22.70;98.00;;;;;;5070986;28;20461;-73
2022/05/16 11:30:22;;;;;;;4.67;2.63;;;22.50;97.90;;;;;;5070553;28;20470;-72
2022/05/16 11:33:00;;;;;;;6.20;2.63;;;22.30;97.80;;;;;;5070513;28;20483;-72
2022/05/16 11:35:36;;;;;;;3.37;2.30;;;22.10;97.80;;;;;;5070395;28;20832;-72
2022/05/16 11:38:15;;;;;;;4.40;2.10;;;22.00;97.80;;;;;;5069710;28;20842;-73
2022/05/16 11:40:51;;;;;;;4.80;2.53;;;21.70;96.60;;;;;;5070566;28;20466;-72
2022/05/16 11:43:25;;;;;;;2.70;2.43;;;21.50;96.70;;;;;;5069912;28;20478;-72
2022/05/16 11:46:20;;;;;;;3.00;2.40;;;21.40;96.90;;;;;;5070040;28;20880;-73
2022/05/16 11:48:54;;;;;;;3.00;2.10;;;21.30;96.40;;;;;;5064177;28;20462;-72
2022/05/16 11:51:29;;;;;;;4.30;2.30;;;21.10;96.70;;;;;;5069878;28;20474;-73
2022/05/16 11:54:00;;;;;;;4.10;2.50;;;20.80;96.60;;;;;;5070500;28;20460;-72
2022/05/16 12:02:16;;;;;;;2.50;1.97;;;20.30;99.50;;;;;;5069921;28;20832;-73
2022/05/16 12:04:46;;;;;;;2.37;1.70;;;20.10;99.90;;;;;;5070583;28;20458;-72
2022/05/16 12:07:24;;;;;;;2.13;1.73;;;19.80;99.90;;;;;;5068921;28;20481;-73
2022/05/16 12:09:55;;;;;;;4.07;2.00;;;19.60;99.90;;;;;;5069582;28;20474;-73
2022/05/16 12:12:41;;;;;;;3.47;2.27;;;19.40;99.90;;;;;;5069165;28;20540;-72
2022/05/16 12:15:21;;;;;;;5.30;2.10;;;19.30;99.90;;;;;;5069401;28;20458;-73
2022/05/16 12:17:54;;;;;;;5.03;2.77;;;19.20;99.90;;;;;;5069488;28;20518;-72
2022/05/16 12:20:39;;;;;;;2.83;2.20;;;19.20;99.90;;;;;;5068976;28;20813;-72
2022/05/16 12:23:09;;;;;;;2.57;2.10;;;19.10;99.90;;;;;;5069071;28;20512;-73
2022/05/16 12:25:37;;;;;;;2.90;2.43;;;19.10;99.90;;;;;;5069801;28;20459;-73
2022/05/16 12:28:29;;;;;;;4.13;2.17;;;19.00;99.90;;;;;;5068877;28;20545;-73
2022/05/16 12:30:58;;;;;;;7.83;2.93;;;19.10;99.90;;;;;;5069822;28;20481;-73
2022/05/16 12:33:50;;;;;;;5.10;2.47;;;19.10;99.90;;;;;;5069181;28;20573;-71
2022/05/16 12:36:18;;;;;;;4.93;2.97;;;19.10;99.90;;;;;;5054002;28;20956;-73
2022/05/16 12:38:50;;;;;;;4.27;2.40;;;18.90;99.90;;;;;;5069397;28;20507;-72
2022/05/16 12:41:54;;;;;;;3.50;2.47;;;18.90;99.90;;;;;;5068080;28;20461;-73
2022/05/16 12:44:47;;;;;;;3.97;2.80;;;18.70;99.90;;;;;;5069993;28;20489;-75
2022/05/16 12:47:53;;;;;;;8.73;3.07;;;18.70;99.90;;;;;;5069146;28;20550;-73
2022/05/16 12:50:39;;;;;;;4.80;3.30;;;18.90;99.90;;;;;;5069097;28;20458;-74
2022/05/16 12:53:33;;;;;;;4.37;2.73;;;19.10;99.90;;;;;;5069694;28;20478;-74
2022/05/16 12:56:23;;;;;;;2.97;2.43;;;19.40;99.90;;;;;;5069431;28;20462;-74
2022/05/16 12:58:58;;;;;;;6.80;2.60;;;20.00;99.90;;;;;;5068964;28;20494;-74
2022/05/16 13:01:32;;;;;;;3.30;2.60;;;20.40;99.90;;;;;;5069842;28;20474;-73
2022/05/16 13:04:11;;;;;;;6.13;2.97;;;20.70;99.90;;;;;;5070118;28;20462;-74
2022/05/16 13:06:49;;;;;;;5.40;2.50;;;20.90;99.90;;;;;;5069137;28;20553;-73
2022/05/16 13:09:41;;;;;;;5.00;2.60;;;21.10;99.90;;;;;;5065786;28;20458;-73
2022/05/16 13:12:26;;;;;;;4.43;2.93;;;21.40;99.90;;;;;;5052474;28;20479;-74
2022/05/16 13:15:02;;;;;;;4.93;2.73;;;21.40;99.90;;;;;;5049277;28;20462;-74
2022/05/16 13:17:34;;;;;;;4.37;3.03;;;21.20;99.90;;;;;;5049151;28;20540;-73
2022/05/16 13:20:03;;;;;;;3.80;2.70;;;21.10;99.90;;;;;;5048606;28;20460;-74
2022/05/16 13:22:30;;;;;;;2.87;2.57;;;21.10;99.90;;;;;;5049552;28;20853;-72
2022/05/16 13:24:57;;;;;;;3.60;2.40;;;21.10;99.90;;;;;;5069083;28;20458;-72
2022/05/16 13:30:15;;;;;;;4.50;2.77;;;20.90;99.90;;;;;;5072864;28;21170;-72
2022/05/16 13:32:43;;;;;;;12.20;3.20;;;20.80;99.90;;;;;;5073260;28;20482;-72
2022/05/16 13:35:12;;;;;;;3.70;2.60;;;20.80;99.90;;;;;;5072108;28;20469;-73
2022/05/16 13:37:44;;;;;;;4.37;3.30;;;21.10;99.90;;;;;;5073325;28;20489;-72
2022/05/16 13:40:20;;;;;;;4.10;3.20;;;21.20;99.90;;;;;;5072767;28;20461;-73
2022/05/16 13:42:48;;;;;;;5.10;3.33;;;21.20;99.90;;;;;;5072402;28;20482;-76
2022/05/16 13:45:22;;;;;;;3.40;3.10;;;21.30;99.90;;;;;;5072995;28;20489;-73
2022/05/16 13:47:49;;;;;;;5.90;3.63;;;21.50;99.90;;;;;;5071958;28;20462;-74
2022/05/16 13:50:25;;;;;;;4.53;3.43;;;21.70;99.90;;;;;;5071994;28;20458;-72
2022/05/16 13:52:52;;;;;;;4.10;3.60;;;22.00;99.90;;;;;;5072817;28;20483;-72
2022/05/16 13:55:20;;;;;;;7.30;3.97;;;22.20;99.90;;;;;;5072567;28;20461;-73
2022/05/16 13:57:48;;;;;;;6.40;3.47;;;22.50;99.90;;;;;;5071405;28;20486;-73